Aguenar – Hadj Bey Akhamok Airport

DAAT · Tamanrasset, Algeria

METAR history DAAT · Aguenar – Hadj Bey Akhamok Airport

Below you see METARs of the last few days. Select a year to browse through older METARs, from the year 2007 onwards.

December 6, 2022

Time Code Weather Temp. Visibility Ceiling Wind METAR/SPECI
12:30
V
25 °C 10 km+ - 100° 100° 12 kt METAR DAAT 061130Z 10012KT CAVOK 25/M08 Q1025
12:00
V
25 °C 10 km+ - 100° 100° 13 kt METAR DAAT 061100Z 10013KT CAVOK 25/M08 Q1026
11:30
V
25 °C 10 km+ - 090° 090° 15 kt METAR DAAT 061030Z 09015KT CAVOK 25/M09 Q1026
10:30
V
24 °C 10 km+ - 080° 080° 16 kt METAR DAAT 060930Z 08016KT CAVOK 24/M08 Q1026
10:00
V
23 °C 10 km+ - 080° 080° 15 kt METAR DAAT 060900Z 08015KT CAVOK 23/M08 Q1026
09:30
V
22 °C 10 km+ - 080° 080° 16 kt METAR DAAT 060830Z 08016KT CAVOK 22/M09 Q1026
09:00
V
21 °C 10 km+ - 080° 080° 16 kt METAR DAAT 060800Z 08016KT CAVOK 21/M08 Q1026
08:30
V
20 °C 10 km+ - 080° 080° 15 kt METAR DAAT 060730Z 08015KT CAVOK 20/M08 Q1026
08:00
V
19 °C 10 km+ - 070° 070° 14 kt METAR DAAT 060700Z 07014KT CAVOK 19/M08 Q1025
07:30
V
18 °C 10 km+ - 070° 070° 15 kt METAR DAAT 060630Z 07015KT CAVOK 18/M08 Q1025
07:00
V
18 °C 10 km+ - 080° 080° 15 kt METAR DAAT 060600Z 08015KT CAVOK 18/M08 Q1025
06:30
V
18 °C 10 km+ - 070° 070° 14 kt METAR DAAT 060530Z 07014KT CAVOK 18/M08 Q1025
06:00
V
18 °C 10 km+ - 080° 080° 14 kt METAR DAAT 060500Z 08014KT CAVOK 18/M08 Q1025
05:30
V
18 °C 10 km+ - 080° 080° 12 kt METAR DAAT 060430Z 08012KT CAVOK 18/M08 Q1025
05:00
V
18 °C 10 km+ - 080° 080° 10 kt METAR DAAT 060400Z 08010KT CAVOK 18/M08 Q1025
04:30
V
18 °C 10 km+ - 070° 070° 12 kt METAR DAAT 060330Z 07012KT CAVOK 18/M08 Q1025
04:00
V
18 °C 10 km+ - 080° 080° 11 kt METAR DAAT 060300Z 08011KT CAVOK 18/M08 Q1025
03:30
V
18 °C 10 km+ - 080° 080° 12 kt METAR DAAT 060230Z 08012KT CAVOK 18/M09 Q1025
03:00
V
18 °C 10 km+ - 090° 090° 11 kt METAR DAAT 060200Z 09011KT CAVOK 18/M08 Q1025
02:30
V
17 °C 10 km+ - 090° 090° 10 kt METAR DAAT 060130Z 09010KT CAVOK 17/M09 Q1025
02:00
V
16 °C 10 km+ - 080° 080° 7 kt METAR DAAT 060100Z 08007KT CAVOK 16/M09 Q1026
01:30
V
14 °C 10 km+ - 060° 060° 4 kt METAR DAAT 060030Z 06004KT CAVOK 14/M09 Q1026
01:00
V
15 °C 10 km+ - 040° 040° 4 kt METAR DAAT 060000Z 04004KT CAVOK 15/M09 Q1026
00:30
V
14 °C 10 km+ - 030° 030° 4 kt METAR DAAT 052330Z 03004KT CAVOK 14/M10 Q1026
00:00
V
14 °C 10 km+ - 030° 030° 3 kt METAR DAAT 052300Z 03003KT CAVOK 14/M10 Q1027

December 5, 2022

Time Code Weather Temp. Visibility Ceiling Wind METAR/SPECI
23:30
V
16 °C 10 km+ - 040° 040° 4 kt METAR DAAT 052230Z 04004KT CAVOK 16/M10 Q1027
23:00
V
15 °C 10 km+ - 060° 060° 3 kt METAR DAAT 052200Z 06003KT CAVOK 15/M10 Q1027
22:30
V
15 °C 10 km+ - 100° 100° 3 kt METAR DAAT 052130Z 10003KT 060V130 CAVOK 15/M10 Q1027
22:00
V
16 °C 10 km+ - 060° 060° 4 kt METAR DAAT 052100Z 06004KT CAVOK 16/M10 Q1027
21:30
V
17 °C 10 km+ - 360° 360° 3 kt METAR DAAT 052030Z 36003KT 340V070 CAVOK 17/M09 Q1027
21:00
V
17 °C 10 km+ - 350° 350° 3 kt METAR DAAT 052000Z 35003KT CAVOK 17/M09 Q1027
20:30
V
19 °C 10 km+ - 290° 290° 4 kt METAR DAAT 051930Z 29004KT CAVOK 19/M09 Q1026
20:00
V
19 °C 10 km+ - 290° 290° 3 kt METAR DAAT 051900Z 29003KT CAVOK 19/M09 Q1026
19:30
V
21 °C 10 km+ - 100° 100° 5 kt METAR DAAT 051830Z 10005KT CAVOK 21/M09 Q1026
19:00
V
21 °C 10 km+ - 110° 110° 5 kt METAR DAAT 051800Z 11005KT CAVOK 21/M08 Q1025
18:30
V
22 °C 10 km+ - 100° 100° 5 kt METAR DAAT 051730Z 10005KT CAVOK 22/M08 Q1025
18:00
V
24 °C 10 km+ - 100° 100° 10 kt METAR DAAT 051700Z 10010KT CAVOK 24/M08 Q1025
17:30
V
24 °C 10 km+ - 100° 100° 10 kt METAR DAAT 051630Z 10010KT CAVOK 24/M08 Q1024
17:00
V
25 °C 10 km+ - 100° 100° 10 kt METAR DAAT 051600Z 10010KT CAVOK 25/M07 Q1024
16:30
V
26 °C 10 km+ - 090° 090° 6 kt METAR DAAT 051530Z 09006KT CAVOK 26/M08 Q1024
16:00
V
26 °C 10 km+ - 090° 090° 8 kt METAR DAAT 051500Z 09008KT CAVOK 26/M08 Q1024
15:30
V
27 °C 10 km+ - 090° 090° 10 kt METAR DAAT 051430Z 09010KT 060V120 CAVOK 27/M08 Q1024
15:00
V
27 °C 10 km+ - 100° 100° 10 kt METAR DAAT 051400Z 10010KT 070V130 CAVOK 27/M09 Q1024
14:30
V
27 °C 10 km+ - 090° 090° 12 - 25 kt METAR DAAT 051330Z 09012G25KT 030V130 CAVOK 27/M07 Q1024
14:00
V
27 °C 10 km+ - 100° 100° 12 kt METAR DAAT 051300Z 10012KT 060V130 CAVOK 27/M07 Q1024
13:30
V
26 °C 10 km+ - 080° 080° 11 kt METAR DAAT 051230Z 08011KT CAVOK 26/M08 Q1025
13:00
V
26 °C 10 km+ - 100° 100° 10 kt METAR DAAT 051200Z 10010KT CAVOK 26/M08 Q1025
12:30
V
26 °C 10 km+ - 070° 070° 10 kt METAR DAAT 051130Z 07010KT 040V110 CAVOK 26/M08 Q1026
12:00
V
25 °C 10 km+ - 070° 070° 10 kt METAR DAAT 051100Z 07010KT 360V100 CAVOK 25/M06 Q1026
11:30
V
25 °C 10 km+ - 090° 090° 11 kt METAR DAAT 051030Z 09011KT CAVOK 25/M05 Q1027
11:00
V
24 °C 10 km+ - 110° 110° 13 kt METAR DAAT 051000Z 11013KT CAVOK 24/M06 Q1027
10:30
V
24 °C 10 km+ - 080° 080° 12 kt METAR DAAT 050930Z 08012KT CAVOK 24/M05 Q1027
10:00
V
23 °C 10 km+ - 080° 080° 12 kt METAR DAAT 050900Z 08012KT CAVOK 23/M05 Q1027
09:30
V
22 °C 10 km+ - 080° 080° 14 kt METAR DAAT 050830Z 08014KT CAVOK 22/M05 Q1027
09:00
V
21 °C 10 km+ - 080° 080° 15 kt METAR DAAT 050800Z 08015KT CAVOK 21/M05 Q1026
08:30
V
20 °C 10 km+ - 080° 080° 12 kt METAR DAAT 050730Z 08012KT CAVOK 20/M05 Q1026
08:00
V
18 °C 10 km+ - 080° 080° 10 kt METAR DAAT 050700Z 08010KT CAVOK 18/M05 Q1025
07:30
V
17 °C 10 km+ - 080° 080° 10 kt METAR DAAT 050630Z 08010KT CAVOK 17/M06 Q1025
07:00
V
14 °C 10 km+ - 060° 060° 6 kt METAR DAAT 050600Z 06006KT CAVOK 14/M06 Q1025
06:30
V
15 °C 10 km+ - 050° 050° 6 kt METAR DAAT 050530Z 05006KT 350V070 CAVOK 15/M05 Q1025
06:00
V
16 °C 10 km+ - 060° 060° 9 kt METAR DAAT 050500Z 06009KT CAVOK 16/M05 Q1024
05:30
V
15 °C 10 km+ - 070° 070° 8 kt METAR DAAT 050430Z 07008KT CAVOK 15/M06 Q1024
05:00
V
16 °C 10 km+ - 360° 360° 3 kt METAR DAAT 050400Z 36003KT 290V070 CAVOK 16/M06 Q1024
04:30
V
14 °C 10 km+ - 320° 320° 3 kt METAR DAAT 050330Z 32003KT 290V010 CAVOK 14/M07 Q1025
04:00
V
15 °C 10 km+ - 090° 090° 5 kt METAR DAAT 050300Z 09005KT CAVOK 15/M07 Q1024
03:30
V
14 °C 10 km+ - 110° 110° 3 kt METAR DAAT 050230Z 11003KT 060V150 CAVOK 14/M07 Q1024
03:00
V
16 °C 10 km+ - 030° 030° 3 kt METAR DAAT 050200Z 03003KT 340V070 CAVOK 16/M06 Q1024
02:30
V
16 °C 10 km+ - Var Var 3 kt METAR DAAT 050130Z VRB03KT CAVOK 16/M07 Q1025
02:00
V
15 °C 10 km+ - Var Var 2 kt METAR DAAT 050100Z VRB02KT CAVOK 15/M07 Q1025
01:30
V
16 °C 10 km+ - 040° 040° 8 kt METAR DAAT 050030Z 04008KT CAVOK 16/M08 Q1025
01:00
V
15 °C 10 km+ - 080° 080° 5 kt METAR DAAT 050000Z 08005KT CAVOK 15/M08 Q1025
00:30
V
15 °C 10 km+ - 080° 080° 5 kt METAR DAAT 042330Z 08005KT CAVOK 15/M08 Q1025
00:00
V
16 °C 10 km+ - 080° 080° 6 kt METAR DAAT 042300Z 08006KT CAVOK 16/M08 Q1025

December 4, 2022

Time Code Weather Temp. Visibility Ceiling Wind METAR/SPECI
23:30
V
17 °C 10 km+ - 090° 090° 7 kt METAR DAAT 042230Z 09007KT CAVOK 17/M08 Q1025
23:00
V
17 °C 10 km+ - 090° 090° 5 kt METAR DAAT 042200Z 09005KT CAVOK 17/M08 Q1025
22:30
V
17 °C 10 km+ - 090° 090° 7 kt METAR DAAT 042130Z 09007KT CAVOK 17/M08 Q1025
22:00
V
17 °C 10 km+ - 100° 100° 5 kt METAR DAAT 042100Z 10005KT 360V110 CAVOK 17/M08 Q1025
21:30
V
18 °C 10 km+ - 100° 100° 6 kt METAR DAAT 042030Z 10006KT CAVOK 18/M08 Q1025
21:00
V
18 °C 10 km+ - 090° 090° 8 kt METAR DAAT 042000Z 09008KT CAVOK 18/M08 Q1024
20:30
V
18 °C 10 km+ - 110° 110° 5 kt METAR DAAT 041930Z 11005KT 360V110 CAVOK 18/M09 Q1024
20:00
V
18 °C 10 km+ - 100° 100° 3 kt METAR DAAT 041900Z 10003KT 040V140 CAVOK 18/M10 Q1024
19:30
V
19 °C 10 km+ - Var Var 1 kt METAR DAAT 041830Z VRB01KT CAVOK 19/M10 Q1023
19:00
V
20 °C 10 km+ - 120° 120° 3 kt METAR DAAT 041800Z 12003KT 080V140 CAVOK 20/M10 Q1023
18:30
V
21 °C 10 km+ - 130° 130° 4 kt METAR DAAT 041730Z 13004KT CAVOK 21/M10 Q1023
18:00
V
23 °C 10 km+ - 150° 150° 4 kt METAR DAAT 041700Z 15004KT CAVOK 23/M10 Q1022
17:30
V
24 °C 10 km+ - 130° 130° 6 kt METAR DAAT 041630Z 13006KT 100V160 9999 SCT046 24/M09 Q1022
17:00
V
25 °C 10 km+ - 120° 120° 4 kt METAR DAAT 041600Z 12004KT 060V160 9999 SCT046 25/M08 Q1022
16:30
V
26 °C 10 km+ - Var Var 2 kt METAR DAAT 041530Z VRB02KT 9999 SCT046 26/M08 Q1022
16:00
V
26 °C 10 km+ - 070° 070° 4 kt METAR DAAT 041500Z 07004KT 330V140 9999 SCT046 26/M08 Q1021
15:30
V
26 °C 10 km+ - Var Var 2 kt METAR DAAT 041430Z VRB02KT 9999 SCT046 26/M08 Q1022
15:00
V
27 °C 10 km+ - Var Var 2 kt METAR DAAT 041400Z VRB02KT 9999 SCT046 27/M07 Q1022
14:30
V
26 °C 10 km+ - 130° 130° 4 kt METAR DAAT 041330Z 13004KT 090V170 9999 SCT046 26/M08 Q1022
14:00
V
26 °C 10 km+ - 120° 120° 4 kt METAR DAAT 041300Z 12004KT 050V160 9999 SCT046 26/M07 Q1022
13:30
V
25 °C 10 km+ - Var Var 5 kt METAR DAAT 041230Z VRB05KT 9999 SCT046 25/M07 Q1022
13:00
V
25 °C 10 km+ - 090° 090° 7 kt METAR DAAT 041200Z 09007KT 060V130 CAVOK 25/M06 Q1023
12:30
V
25 °C 10 km+ - Var Var 6 - 17 kt METAR DAAT 041130Z VRB06G17KT CAVOK 25/M07 Q1023
12:00
V
25 °C 10 km+ - 110° 110° 7 kt METAR DAAT 041100Z 11007KT 060V160 CAVOK 25/M05 Q1023
11:30
V
24 °C 10 km+ - 130° 130° 10 kt METAR DAAT 041030Z 13010KT 110V180 CAVOK 24/M06 Q1024
11:00
V
24 °C 10 km+ - 130° 130° 11 kt METAR DAAT 041000Z 13011KT 100V160 CAVOK 24/M05 Q1024

We and third parties follow your internet behavior on our website with cookies. If you continue, we assume you agree with our cookie policy.